This is the latest recevied weather packets stored in our database for station/object EA7RX-3. If no packets are shown the sender has not sent any weather packets the latest 10 day(s).
| Time | Temp. | Humidity | Pressure | Rain* | Wind** | Luminosity | Snow |
|---|---|---|---|---|---|---|---|
| 1777057097 | 20.56° C | 10% | - | - | - | - | - |
| 1777056497 | 20.56° C | 96% | 1013.8 hPa | - | - | - | - |
| 1777055898 | 21.11° C | 94% | 1013.8 hPa | - | - | - | - |
| 1777055297 | 21.67° C | 85% | 1013.5 hPa | - | - | - | - |
| 1777054697 | 22.22° C | 78% | 1013.2 hPa | - | - | - | - |
| 1777054097 | 22.22° C | 76% | 1012.9 hPa | - | - | - | - |
| 1777053498 | 21.67° C | 79% | 1013 hPa | - | - | - | - |
| 1777052897 | 21.67° C | 80% | 1013.1 hPa | - | - | - | - |
| 1777052297 | 21.67° C | 83% | 1013 hPa | - | - | - | - |
| 1777051697 | 22.22° C | 86% | 1012.7 hPa | - | - | - | - |
| 1777051097 | 22.22° C | 87% | 1012.6 hPa | - | - | - | - |
| 1777050497 | 22.78° C | 88% | 1012.4 hPa | - | - | - | - |
| 1777049898 | 22.78° C | 85% | 1012.4 hPa | - | - | - | - |
| 1777049298 | 23.33° C | 72% | 1012.4 hPa | - | - | - | - |
| 1777048697 | 23.33° C | 69% | 1012.2 hPa | - | - | - | - |
| 1777048098 | 24.44° C | 64% | 1012 hPa | - | - | - | - |
| 1777047497 | 25° C | 63% | 1011.7 hPa | - | - | - | - |
| 1777046897 | 25° C | 61% | 1011.8 hPa | - | - | - | - |
| 1777046296 | 25.56° C | 58% | 1011.7 hPa | - | - | - | - |
| 1777045697 | 26.67° C | 56% | 1011.4 hPa | - | - | - | - |
| 1777045097 | 25.56° C | 59% | 1011.8 hPa | - | - | - | - |
| 1777044497 | 25° C | 62% | 1012 hPa | - | - | - | - |
| 1777043897 | 26.11° C | 62% | 1011.9 hPa | - | - | - | - |
| 1777043296 | 24.44° C | 64% | 1012.2 hPa | - | - | - | - |
| 1777042697 | 25° C | 62% | 1012 hPa | - | - | - | - |
* Rain since midnight (hover to see other rain measurements)
** Current wind speed in m/s (hover to see current wind gust speed)